createdAt,value
2023-03-03T00:01:39.785Z,23.97
2023-03-03T00:04:07.673Z,23.87
2023-03-03T00:06:35.613Z,23.43
2023-03-03T00:09:03.583Z,23.45
2023-03-03T00:11:31.475Z,23.75
2023-03-03T00:13:59.376Z,23.01
2023-03-03T00:16:38.368Z,23.23
2023-03-03T00:19:17.898Z,23.54
2023-03-03T00:21:47.514Z,23.51
2023-03-03T00:24:39.226Z,23.95
2023-03-03T00:27:36.758Z,23.11
2023-03-03T00:30:20.137Z,23.14
2023-03-03T00:32:50.316Z,23.11
2023-03-03T00:35:23.726Z,22.85
2023-03-03T00:37:58.499Z,23.26
2023-03-03T00:40:47.326Z,23.67
2023-03-03T00:43:24.683Z,23.29
2023-03-03T00:45:55.057Z,23.37
2023-03-03T00:48:22.903Z,23.24
2023-03-03T00:50:55.994Z,23.65
2023-03-03T00:53:26.773Z,23.43
2023-03-03T00:55:54.814Z,23.23
2023-03-03T00:58:23.956Z,23.68
2023-03-03T01:00:54.601Z,23.46
2023-03-03T01:03:27.613Z,24.00
2023-03-03T01:05:55.617Z,23.71
2023-03-03T01:08:23.968Z,23.09
2023-03-03T01:10:55.850Z,23.27
2023-03-03T01:13:27.878Z,23.44
2023-03-03T01:15:56.460Z,23.45
2023-03-03T01:18:24.328Z,23.48
2023-03-03T01:20:52.841Z,23.10
2023-03-03T01:23:20.751Z,23.07
2023-03-03T01:25:48.823Z,23.87
2023-03-03T01:28:17.788Z,22.98
2023-03-03T01:30:46.008Z,23.20
2023-03-03T01:33:14.007Z,23.44
2023-03-03T01:35:46.090Z,24.11
2023-03-03T01:38:15.696Z,23.84
2023-03-03T01:40:43.683Z,23.35
2023-03-03T01:43:15.526Z,24.20
2023-03-03T01:45:49.464Z,22.50
2023-03-03T01:48:36.231Z,22.59
2023-03-03T01:51:16.035Z,21.86
2023-03-03T01:53:48.469Z,22.27
2023-03-03T01:56:16.909Z,22.92
2023-03-03T01:58:53.220Z,22.25
2023-03-03T02:01:24.551Z,22.87
2023-03-03T02:03:53.435Z,23.19
2023-03-03T02:06:30.115Z,23.24
2023-03-03T02:09:05.363Z,22.96
2023-03-03T02:11:37.095Z,23.63
2023-03-03T02:14:05.078Z,26.65
2023-03-03T02:16:33.157Z,29.14
2023-03-03T02:19:01.321Z,28.82
2023-03-03T02:21:29.893Z,28.49
2023-03-03T02:24:24.060Z,27.15
2023-03-03T02:26:52.784Z,26.31
2023-03-03T02:29:21.585Z,26.23
2023-03-03T02:31:50.034Z,25.29
2023-03-03T02:34:18.108Z,24.85
2023-03-03T02:36:46.003Z,24.72
2023-03-03T02:39:23.010Z,23.87
2023-03-03T02:42:11.121Z,23.76
2023-03-03T02:44:44.496Z,23.34
2023-03-03T02:47:12.448Z,23.02
2023-03-03T02:49:40.783Z,23.75
2023-03-03T02:52:10.397Z,23.08
2023-03-03T02:54:40.860Z,23.39
2023-03-03T02:57:09.228Z,23.06
2023-03-03T02:59:37.459Z,23.17
2023-03-03T03:02:23.169Z,23.68
2023-03-03T03:04:51.065Z,23.88
2023-03-03T03:07:23.128Z,24.05
2023-03-03T03:09:51.213Z,24.11
2023-03-03T03:12:20.792Z,25.10
2023-03-03T03:14:51.500Z,25.93
2023-03-03T03:17:20.461Z,27.78
2023-03-03T03:19:48.465Z,28.65
2023-03-03T03:22:16.446Z,28.13
2023-03-03T03:24:44.737Z,28.73
2023-03-03T03:27:13.536Z,28.67
2023-03-03T03:29:41.655Z,29.55
2023-03-03T03:32:10.034Z,29.53
2023-03-03T03:34:37.982Z,29.11
2023-03-03T03:37:06.799Z,29.66
2023-03-03T03:39:34.845Z,28.54
2023-03-03T03:42:02.948Z,28.41
2023-03-03T03:44:31.077Z,28.74
2023-03-03T03:46:58.961Z,28.66
2023-03-03T03:49:27.260Z,28.64
2023-03-03T03:51:57.777Z,28.57
2023-03-03T03:54:28.753Z,28.73
2023-03-03T03:56:57.002Z,29.44
2023-03-03T03:59:25.344Z,28.91
2023-03-03T04:01:53.731Z,30.75
2023-03-03T04:04:23.213Z,30.39
2023-03-03T04:06:51.703Z,30.95
2023-03-03T04:09:20.361Z,31.02
2023-03-03T04:11:48.853Z,31.14
2023-03-03T04:14:17.026Z,30.33
2023-03-03T04:16:44.998Z,29.87
2023-03-03T04:19:13.479Z,30.06
2023-03-03T04:21:43.509Z,30.68
2023-03-03T04:24:12.024Z,38.32
2023-03-03T04:26:40.060Z,29.90
2023-03-03T04:29:07.932Z,29.42
2023-03-03T04:31:35.871Z,29.18
2023-03-03T04:34:05.718Z,30.40
2023-03-03T04:36:34.224Z,30.04
2023-03-03T04:39:03.856Z,30.82
2023-03-03T04:41:31.872Z,30.37
2023-03-03T04:44:00.025Z,31.50
2023-03-03T04:46:28.282Z,31.68
2023-03-03T04:48:56.972Z,30.91
2023-03-03T04:51:26.816Z,30.51
2023-03-03T04:53:54.952Z,30.60
2023-03-03T04:56:23.026Z,30.16
2023-03-03T04:58:51.233Z,30.70
2023-03-03T05:01:19.778Z,30.60
2023-03-03T05:03:48.292Z,30.10
2023-03-03T05:06:18.839Z,30.95
2023-03-03T05:08:46.758Z,31.52
2023-03-03T05:11:14.669Z,31.08
2023-03-03T05:13:42.720Z,32.63
2023-03-03T05:16:10.863Z,33.73
2023-03-03T05:18:38.838Z,34.29
2023-03-03T05:21:06.728Z,34.04
2023-03-03T05:23:34.830Z,34.32
2023-03-03T05:26:02.934Z,33.85
2023-03-03T05:28:31.109Z,33.79
2023-03-03T05:30:58.961Z,34.53
2023-03-03T05:33:26.855Z,35.53
2023-03-03T05:35:56.425Z,35.53
2023-03-03T05:38:24.806Z,35.52
2023-03-03T05:40:53.142Z,35.99
2023-03-03T05:43:20.994Z,35.53
2023-03-03T05:45:58.023Z,34.95
2023-03-03T05:48:25.916Z,36.62
2023-03-03T05:50:53.820Z,35.57
2023-03-03T05:53:21.840Z,37.20
2023-03-03T05:55:49.735Z,36.30
2023-03-03T05:58:17.702Z,38.47
2023-03-03T06:00:45.897Z,39.20
2023-03-03T06:03:13.992Z,39.77
2023-03-03T06:05:42.236Z,39.60
2023-03-03T06:08:10.249Z,42.31
2023-03-03T06:10:38.336Z,42.59
2023-03-03T06:13:08.224Z,39.61
2023-03-03T06:15:36.159Z,39.93
2023-03-03T06:18:04.318Z,38.07
2023-03-03T06:20:33.556Z,39.04
2023-03-03T06:23:01.601Z,38.75
2023-03-03T06:25:29.853Z,41.64
2023-03-03T06:27:58.140Z,39.42
2023-03-03T06:30:27.029Z,42.18
2023-03-03T06:32:54.926Z,40.26
2023-03-03T06:35:23.080Z,40.17
2023-03-03T06:37:51.047Z,40.51
2023-03-03T06:40:18.925Z,40.71
2023-03-03T06:42:46.920Z,40.21
2023-03-03T06:45:14.973Z,40.27
2023-03-03T06:47:44.018Z,40.12
2023-03-03T06:50:13.695Z,40.55
2023-03-03T06:52:41.607Z,43.61
2023-03-03T06:55:18.852Z,42.43
2023-03-03T06:57:46.931Z,41.24
2023-03-03T07:00:23.199Z,40.20
2023-03-03T07:02:59.934Z,41.09
2023-03-03T07:05:29.362Z,40.71
2023-03-03T07:07:57.582Z,41.22
2023-03-03T07:10:28.207Z,40.42
2023-03-03T07:13:02.770Z,39.59
2023-03-03T07:15:35.111Z,38.66
2023-03-03T07:18:40.644Z,38.46
2023-03-03T07:21:28.741Z,37.69
2023-03-03T07:23:57.822Z,39.32
2023-03-03T07:26:30.863Z,36.84
2023-03-03T07:29:01.492Z,36.37
2023-03-03T07:31:31.901Z,36.37
2023-03-03T07:34:01.230Z,33.85
2023-03-03T07:36:36.750Z,34.77
2023-03-03T07:39:29.520Z,35.86
2023-03-03T07:42:15.322Z,36.50
2023-03-03T07:44:43.437Z,36.13
2023-03-03T07:47:28.766Z,35.32
2023-03-03T07:50:19.212Z,35.69
2023-03-03T07:52:56.932Z,35.52
2023-03-03T07:55:35.580Z,35.80
2023-03-03T07:58:16.586Z,35.38
2023-03-03T08:01:21.791Z,35.09
2023-03-03T08:03:51.838Z,35.84
2023-03-03T08:06:34.903Z,37.00
2023-03-03T08:09:25.877Z,35.91
2023-03-03T08:11:57.407Z,34.98
2023-03-03T08:14:33.617Z,35.94
2023-03-03T08:17:02.651Z,34.99
2023-03-03T08:19:32.025Z,36.41
2023-03-03T08:22:20.418Z,36.06
2023-03-03T08:24:48.258Z,35.20
2023-03-03T08:27:16.137Z,35.27
2023-03-03T08:29:44.003Z,35.10
2023-03-03T08:32:12.037Z,34.38
2023-03-03T08:34:40.008Z,34.97
2023-03-03T08:37:07.872Z,34.48
2023-03-03T08:39:35.713Z,37.55
2023-03-03T08:42:03.787Z,36.26
2023-03-03T08:44:31.607Z,38.12
2023-03-03T08:46:59.649Z,36.11
2023-03-03T08:49:27.496Z,35.90
2023-03-03T08:51:55.561Z,36.94
2023-03-03T08:54:23.466Z,37.42
2023-03-03T08:56:51.864Z,37.69
2023-03-03T08:59:20.492Z,39.06
2023-03-03T09:01:48.380Z,42.50
2023-03-03T09:04:16.311Z,43.25
2023-03-03T09:06:44.397Z,49.29
2023-03-03T09:09:12.505Z,44.66
2023-03-03T09:11:40.480Z,44.05
2023-03-03T09:14:17.551Z,42.62
2023-03-03T09:16:53.663Z,44.69
2023-03-03T09:19:27.405Z,43.81
2023-03-03T09:21:57.970Z,43.48
2023-03-03T09:24:31.185Z,44.71
2023-03-03T09:26:59.740Z,42.32
2023-03-03T09:29:31.376Z,44.46
2023-03-03T09:32:02.653Z,44.56
2023-03-03T09:34:36.812Z,45.00
2023-03-03T09:37:24.417Z,44.45
2023-03-03T09:39:55.238Z,45.26
2023-03-03T09:42:29.163Z,44.97
2023-03-03T09:45:25.191Z,45.63
2023-03-03T09:47:59.374Z,45.53
2023-03-03T09:50:49.303Z,44.13
2023-03-03T09:53:33.328Z,43.68
2023-03-03T09:56:22.055Z,42.69
2023-03-03T09:58:58.713Z,40.05
2023-03-03T10:01:41.173Z,37.83
2023-03-03T10:04:21.284Z,38.31
2023-03-03T10:06:57.491Z,38.42
2023-03-03T10:09:50.656Z,37.63
2023-03-03T10:12:18.486Z,39.66
2023-03-03T10:15:12.852Z,38.79
2023-03-03T10:17:50.034Z,38.45
2023-03-03T10:21:12.088Z,39.34
2023-03-03T10:23:58.332Z,39.33
2023-03-03T10:26:54.632Z,38.88
2023-03-03T10:29:44.510Z,39.83
2023-03-03T10:32:38.443Z,38.99
2023-03-03T10:35:19.333Z,38.57
2023-03-03T10:38:10.858Z,40.07
2023-03-03T10:40:54.293Z,40.43
2023-03-03T10:43:54.084Z,41.70
2023-03-03T10:46:36.835Z,40.74
2023-03-03T10:49:21.422Z,39.78
2023-03-03T10:52:09.552Z,39.06
2023-03-03T10:55:14.969Z,39.88
2023-03-03T10:58:20.321Z,40.01
2023-03-03T11:01:13.776Z,42.68
2023-03-03T11:04:04.836Z,41.02
2023-03-03T11:07:07.551Z,42.56
2023-03-03T11:10:03.428Z,41.16
2023-03-03T11:12:53.526Z,41.66
2023-03-03T11:15:27.115Z,41.40
2023-03-03T11:18:11.977Z,39.68
2023-03-03T11:21:06.470Z,40.00
2023-03-03T11:24:02.764Z,40.40
2023-03-03T11:26:30.878Z,39.45
2023-03-03T11:29:20.437Z,39.44
2023-03-03T11:32:20.030Z,43.13
2023-03-03T11:34:57.138Z,42.80
2023-03-03T11:38:05.489Z,42.18
2023-03-03T11:40:51.574Z,41.66
2023-03-03T11:43:36.612Z,39.50
2023-03-03T11:46:14.220Z,41.65
2023-03-03T11:49:07.006Z,41.86
2023-03-03T11:51:41.199Z,42.89
2023-03-03T11:54:24.403Z,41.01
2023-03-03T11:57:08.534Z,42.12
2023-03-03T11:59:39.351Z,40.42
2023-03-03T12:02:23.737Z,40.04
2023-03-03T12:05:30.548Z,39.33
2023-03-03T12:08:33.564Z,38.93
2023-03-03T12:11:23.445Z,39.55
2023-03-03T12:14:14.542Z,39.79
2023-03-03T12:16:56.266Z,40.00
2023-03-03T12:19:46.550Z,40.25
2023-03-03T12:22:22.958Z,43.64
2023-03-03T12:25:14.971Z,39.64
2023-03-03T12:28:09.185Z,37.65
2023-03-03T12:30:58.880Z,36.92
2023-03-03T12:33:40.184Z,36.55
2023-03-03T12:36:08.009Z,37.60
2023-03-03T12:38:54.732Z,39.60
2023-03-03T12:41:56.208Z,38.08
2023-03-03T12:44:36.322Z,37.65
2023-03-03T12:47:22.274Z,37.63
2023-03-03T12:50:11.438Z,37.04
2023-03-03T12:53:25.578Z,37.33
2023-03-03T12:56:01.364Z,37.24
2023-03-03T12:58:48.132Z,36.07
2023-03-03T13:01:19.598Z,37.52
2023-03-03T13:04:02.152Z,37.04
2023-03-03T13:06:39.952Z,35.85
2023-03-03T13:09:45.276Z,34.55
2023-03-03T13:12:28.655Z,36.84
2023-03-03T13:15:08.665Z,40.01
2023-03-03T13:17:42.426Z,39.62
2023-03-03T13:20:26.818Z,34.53
2023-03-03T13:23:02.789Z,34.72
2023-03-03T13:25:59.618Z,33.36
2023-03-03T13:28:48.385Z,31.86
2023-03-03T13:31:22.201Z,31.59
2023-03-03T13:34:01.869Z,32.01
2023-03-03T13:36:37.959Z,31.20
2023-03-03T13:39:24.438Z,31.37
2023-03-03T13:42:17.244Z,30.84
2023-03-03T13:44:49.461Z,31.52
2023-03-03T13:47:20.147Z,32.50
2023-03-03T13:49:56.091Z,31.90
2023-03-03T13:52:28.766Z,31.62
2023-03-03T13:54:59.678Z,31.06
2023-03-03T13:57:48.671Z,31.00
2023-03-03T14:00:38.598Z,31.12
2023-03-03T14:03:23.175Z,34.90
2023-03-03T14:05:56.433Z,31.36
2023-03-03T14:08:30.371Z,30.96
2023-03-03T14:11:22.182Z,30.57
2023-03-03T14:14:18.203Z,28.88
2023-03-03T14:16:59.039Z,30.78
2023-03-03T14:19:42.558Z,30.09
2023-03-03T14:22:26.452Z,30.77
2023-03-03T14:25:15.152Z,28.53
2023-03-03T14:27:49.177Z,27.85
2023-03-03T14:30:23.837Z,32.51
2023-03-03T14:33:01.298Z,31.65
2023-03-03T14:35:34.100Z,26.42
2023-03-03T14:38:10.412Z,27.79
2023-03-03T14:40:42.852Z,27.87
2023-03-03T14:43:34.369Z,28.35
2023-03-03T14:46:24.415Z,28.50
2023-03-03T14:48:54.701Z,26.78
2023-03-03T14:51:27.202Z,32.59
2023-03-03T14:53:57.168Z,27.23
2023-03-03T14:56:26.274Z,24.34
2023-03-03T14:59:12.143Z,25.00
2023-03-03T15:01:40.213Z,24.50
2023-03-03T15:04:14.211Z,28.19
2023-03-03T15:06:43.125Z,25.26
2023-03-03T15:09:35.683Z,28.83
2023-03-03T15:12:20.202Z,30.28
2023-03-03T15:14:54.137Z,25.86
2023-03-03T15:17:37.371Z,22.71
2023-03-03T15:20:07.966Z,23.70
2023-03-03T15:22:48.296Z,23.84
2023-03-03T15:25:55.507Z,25.56
2023-03-03T15:28:30.267Z,23.26
2023-03-03T15:31:08.514Z,22.97
2023-03-03T15:33:55.259Z,23.07
2023-03-03T15:36:28.794Z,23.80
2023-03-03T15:39:02.569Z,23.02
2023-03-03T15:41:42.018Z,23.29
2023-03-03T15:44:29.318Z,24.86
2023-03-03T15:47:06.029Z,25.55
2023-03-03T15:49:55.663Z,29.41
2023-03-03T15:52:23.694Z,30.19
2023-03-03T15:55:06.780Z,29.79
2023-03-03T15:57:41.704Z,30.97
2023-03-03T16:00:30.684Z,31.84
2023-03-03T16:03:15.360Z,35.39
2023-03-03T16:06:09.787Z,32.86
2023-03-03T16:09:24.772Z,35.09
2023-03-03T16:12:24.663Z,41.27
2023-03-03T16:15:13.112Z,40.07
2023-03-03T16:18:11.896Z,40.22
2023-03-03T16:20:50.454Z,41.71
2023-03-03T16:23:47.596Z,38.25
2023-03-03T16:26:36.943Z,39.01
2023-03-03T16:29:35.031Z,39.03
2023-03-03T16:32:16.339Z,41.89
2023-03-03T16:35:06.563Z,42.79
2023-03-03T16:37:45.478Z,37.59
2023-03-03T16:40:50.245Z,38.51
2023-03-03T16:43:42.078Z,38.46
2023-03-03T16:46:28.174Z,40.11
2023-03-03T16:49:09.743Z,40.54
2023-03-03T16:52:02.291Z,38.13
2023-03-03T16:54:39.930Z,37.54
2023-03-03T16:57:23.330Z,41.02
2023-03-03T17:00:09.696Z,41.21
2023-03-03T17:02:48.482Z,43.81
2023-03-03T17:05:38.256Z,40.91
2023-03-03T17:08:28.286Z,41.44
2023-03-03T17:11:27.513Z,40.25
2023-03-03T17:14:29.590Z,42.53
2023-03-03T17:17:17.999Z,42.86
2023-03-03T17:20:00.758Z,42.33
2023-03-03T17:22:46.870Z,42.52
2023-03-03T17:25:23.216Z,42.46
2023-03-03T17:28:13.046Z,41.60
2023-03-03T17:31:14.928Z,43.42
2023-03-03T17:33:57.420Z,43.62
2023-03-03T17:36:47.603Z,44.17
2023-03-03T17:39:38.649Z,45.03
2023-03-03T17:42:22.102Z,44.82
2023-03-03T17:45:08.199Z,46.25
2023-03-03T17:47:45.258Z,45.18
2023-03-03T17:50:47.303Z,45.22
2023-03-03T17:53:38.667Z,45.62
2023-03-03T17:56:09.220Z,44.81
2023-03-03T17:59:05.113Z,45.74
2023-03-03T18:01:45.022Z,45.21
2023-03-03T18:04:27.890Z,46.47
2023-03-03T18:07:17.638Z,45.08
2023-03-03T18:10:09.754Z,46.96
2023-03-03T18:13:05.676Z,44.77
2023-03-03T18:16:12.385Z,47.31
2023-03-03T18:18:55.405Z,46.21
2023-03-03T18:21:38.813Z,44.66
2023-03-03T18:24:30.330Z,46.71
2023-03-03T18:27:22.938Z,46.75
2023-03-03T18:30:24.691Z,45.46
2023-03-03T18:32:56.614Z,46.12
2023-03-03T18:35:33.442Z,45.18
2023-03-03T18:38:16.663Z,46.17
2023-03-03T18:41:19.447Z,46.94
2023-03-03T18:43:54.821Z,44.85
2023-03-03T18:46:22.834Z,45.05
2023-03-03T18:49:10.910Z,44.73
2023-03-03T18:51:38.709Z,46.68
2023-03-03T18:54:12.519Z,45.48
2023-03-03T18:56:45.354Z,47.75
2023-03-03T18:59:34.760Z,50.42
2023-03-03T19:02:17.971Z,50.33
2023-03-03T19:05:11.032Z,45.86
2023-03-03T19:07:42.066Z,46.39
2023-03-03T19:10:18.882Z,52.24
2023-03-03T19:12:50.970Z,48.56
2023-03-03T19:15:31.412Z,51.78
2023-03-03T19:18:03.542Z,56.42
2023-03-03T19:20:43.584Z,56.56
2023-03-03T19:23:22.058Z,50.35
2023-03-03T19:26:24.881Z,49.10
2023-03-03T19:29:12.221Z,47.96
2023-03-03T19:32:17.220Z,54.41
2023-03-03T19:35:19.168Z,52.14
2023-03-03T19:38:04.977Z,49.27
2023-03-03T19:41:01.110Z,49.76
2023-03-03T19:43:43.489Z,50.84
2023-03-03T19:46:20.346Z,52.51
2023-03-03T19:49:18.514Z,52.90
2023-03-03T19:51:59.332Z,53.82
2023-03-03T19:54:33.249Z,55.15
2023-03-03T19:57:04.090Z,55.06
2023-03-03T19:59:47.704Z,55.11
2023-03-03T20:02:31.471Z,56.74
2023-03-03T20:05:08.545Z,56.30
2023-03-03T20:07:55.367Z,55.87
2023-03-03T20:11:04.979Z,56.10
2023-03-03T20:13:59.077Z,57.09
2023-03-03T20:16:37.749Z,59.70
2023-03-03T20:19:24.538Z,59.15
2023-03-03T20:21:55.026Z,59.27
2023-03-03T20:24:39.471Z,58.92
2023-03-03T20:27:17.203Z,57.24
2023-03-03T20:29:57.111Z,56.18
2023-03-03T20:32:40.532Z,56.65
2023-03-03T20:35:56.764Z,57.77
2023-03-03T20:38:36.728Z,58.51
2023-03-03T20:41:05.498Z,58.40
2023-03-03T20:43:39.390Z,58.77
2023-03-03T20:46:20.842Z,59.16
2023-03-03T20:48:54.547Z,58.17
2023-03-03T20:51:36.286Z,58.25
2023-03-03T20:54:23.114Z,57.67
2023-03-03T20:57:08.544Z,58.06
2023-03-03T20:59:42.938Z,58.17
2023-03-03T21:02:30.560Z,58.40
2023-03-03T21:05:20.294Z,58.76
2023-03-03T21:07:57.650Z,57.24
2023-03-03T21:10:28.331Z,58.10
2023-03-03T21:12:58.421Z,58.61
2023-03-03T21:15:33.926Z,57.80
2023-03-03T21:18:20.811Z,59.41
2023-03-03T21:20:48.714Z,60.34
2023-03-03T21:23:17.048Z,59.25
2023-03-03T21:25:45.859Z,58.14
2023-03-03T21:28:19.964Z,60.12
2023-03-03T21:31:15.420Z,59.58
2023-03-03T21:33:56.194Z,59.29
2023-03-03T21:36:36.089Z,59.08
2023-03-03T21:39:43.796Z,59.02
2023-03-03T21:42:39.147Z,59.16
2023-03-03T21:45:13.465Z,58.45
2023-03-03T21:47:41.438Z,58.87
2023-03-03T21:50:11.433Z,58.33
2023-03-03T21:52:39.499Z,58.75
2023-03-03T21:55:08.143Z,59.10
2023-03-03T21:57:36.578Z,58.18
2023-03-03T22:00:06.877Z,58.93
2023-03-03T22:02:36.670Z,59.61
2023-03-03T22:05:07.469Z,59.48
2023-03-03T22:07:35.472Z,60.47
2023-03-03T22:10:03.802Z,60.63
2023-03-03T22:12:31.697Z,59.69
2023-03-03T22:14:59.606Z,58.86
2023-03-03T22:17:28.146Z,58.69
2023-03-03T22:19:56.082Z,58.03
2023-03-03T22:22:24.478Z,58.91
2023-03-03T22:24:53.815Z,58.16
2023-03-03T22:27:21.763Z,58.20
2023-03-03T22:29:49.585Z,59.08
2023-03-03T22:32:17.490Z,57.93
2023-03-03T22:34:45.704Z,57.95
2023-03-03T22:37:13.523Z,57.43
2023-03-03T22:39:41.349Z,58.05
2023-03-03T22:42:11.138Z,58.68
2023-03-03T22:44:39.916Z,57.45
2023-03-03T22:47:07.732Z,57.92
2023-03-03T22:49:35.556Z,57.17
2023-03-03T22:52:03.866Z,58.60
2023-03-03T22:54:31.742Z,58.15
2023-03-03T22:56:59.677Z,58.75
2023-03-03T22:59:27.544Z,57.41
2023-03-03T23:01:56.166Z,57.77
2023-03-03T23:04:24.084Z,59.82
2023-03-03T23:06:52.044Z,59.83
2023-03-03T23:09:19.905Z,59.56
2023-03-03T23:11:47.783Z,60.54
2023-03-03T23:14:15.758Z,58.69
2023-03-03T23:16:43.810Z,60.41
2023-03-03T23:19:11.801Z,59.92
2023-03-03T23:21:39.646Z,58.44
2023-03-03T23:24:07.831Z,58.14
2023-03-03T23:26:35.777Z,58.18
2023-03-03T23:29:04.689Z,58.87
2023-03-03T23:31:32.580Z,59.36
2023-03-03T23:34:00.531Z,57.85
2023-03-03T23:36:28.369Z,57.25
2023-03-03T23:38:56.477Z,57.54
2023-03-03T23:41:24.543Z,58.33
2023-03-03T23:43:52.385Z,57.63
2023-03-03T23:46:20.301Z,56.77
2023-03-03T23:48:48.361Z,57.41
2023-03-03T23:51:16.290Z,57.29
2023-03-03T23:53:44.164Z,57.09
2023-03-03T23:56:12.176Z,57.46
2023-03-03T23:58:40.070Z,57.43
